Domov               UVHVVR             MKGP            O straneh              
ZDRAVSTVENO VARSTVO RASTLIN
  MREŽA AGROMET. POSTAJ
 ► PROGNOSTIČNA OBVESTILA
AGROMETEOROLOŠKI PODATKI -
ARSO
OBVLADOVANJE TVEGANJ ZARADI
NEUGODNIH VREMENSKIH RAZMER
  ► NARAVNE NESREČE
  ► SUŠA/MOČA
  ► NAMAKANJE
  ► ŽLED (gozdarstvo)
KARTOGRAFSKI PRIKAZI
SPLETNE POVEZAVE
PROJEKTI IN PUBLIKACIJE

AGROMETEOROLOŠKA MREŽA: VREMENSKE POSTAJE IN FENOLOŠKA OPAZOVANJA

Pregled podatkov za lokacijo Parižlje, meteorološka postaja 24303

Pregled senzorjev na lokaciji

ID Ime Zadnja
vrednost
Datum
zadnje
spremembe
Tip
senzorja
1493 Temperatura 2 m ( °C) 18,8 °C 19.8.2017 20:00 Generic -40 - +60 °C
1494 Relativna vlaga 2 m (% RH) 77,56 % RH 19.8.2017 20:00 Generic 0 - 100 %
1495 Omočenost lista (U) 0 U 19.8.2017 20:00 A730WET
1496 Padavine 0.2 mm (mm) 0 mm 19.8.2017 20:00
2139 Sončno sevanje (W/m2) 1,37 W/m2 19.8.2017 20:00 MS-020VM 1400 W/m²

Pregled podatkov zadnjih 24 ur

Zap.
št.
Datum in čas Parižlje
Omočenost
lista
Padavine
0.2
mm
Relativna
vlaga
2
m
Sončno
sevanje
Temperatura
2
m
0 19.8.2017 19:00 0 0 77,56 1,37 18,8
1 19.8.2017 18:30 0 0 75,36 9,23 19,12
2 19.8.2017 18:00 8 0,4 74,97 15,73 19,46
3 19.8.2017 17:30 1 0 73,77 31,79 20,44
4 19.8.2017 17:00 1 0 73,8 63,59 20,83
5 19.8.2017 16:30 5 0 76,09 59,15 20,85
6 19.8.2017 16:00 7 0 78,73 24,96 21,03
7 19.8.2017 15:30 10 0 84,13 33,16 21,05
8 19.8.2017 15:00 2 0,2 86,28 61,88 20,95
9 19.8.2017 14:30 5 0 83,91 65,64 20,9
10 19.8.2017 14:00 10 1,6 87,84 73,5 20,66
11 19.8.2017 13:30 2 0 83,91 33,5 21,15
12 19.8.2017 13:00 8 0,4 79,19 61,88 21,2
13 19.8.2017 12:30 10 5,8 79,49 31,11 22,15
14 19.8.2017 12:00 0 0 52,55 129,57 25,4
15 19.8.2017 11:30 0 0 48,45 210,6 26,06
16 19.8.2017 11:00 0 0 47,11 192,14 26,18
17 19.8.2017 10:30 0 0 53,48 171,28 25,79
18 19.8.2017 10:00 0 0 52,43 269,74 25,59
19 19.8.2017 09:30 0 0 55,19 188,38 24,32
20 19.8.2017 09:00 0 0 62,34 165,81 23,57
21 19.8.2017 08:30 0 0 66,4 142,56 21,76
22 19.8.2017 08:00 0 0 70,09 147,35 20,63
23 19.8.2017 07:30 0 0 74,04 141,88 19,76
24 19.8.2017 07:00 9 0 77,39 67,35 17,78
25 19.8.2017 06:30 10 0 85,37 25,98 16,7
26 19.8.2017 06:00 9 0 88,42 18,12 15,7
27 19.8.2017 05:30 9 0 90,92 4,1 15,7
28 19.8.2017 05:00 9 0 89,35 0 15,8
29 19.8.2017 04:30 9 0 88,4 0 16,14
30 19.8.2017 04:00 9 0 89,08 0 16,17
31 19.8.2017 03:30 9 0 88,77 0 16,29
32 19.8.2017 03:00 7 0 91,16 0 15,68
33 19.8.2017 02:30 6 0 90,65 0 16,07
34 19.8.2017 02:00 4 0 89,99 0 16,34
35 19.8.2017 01:30 4 0 88,5 0 16,87
36 19.8.2017 01:00 2 0 88,62 0 17,07
37 19.8.2017 00:30 1 0 85,76 0 17,14
38 19.8.2017 00:00 0 0 87,62 0 17,85
39 18.8.2017 23:30 0 0 83,08 0 18,66
40 18.8.2017 23:00 0 0 79,51 0 19,73
41 18.8.2017 22:30 0 0 79,15 0 19,56
42 18.8.2017 22:00 0 0 79,68 0 20,1
43 18.8.2017 21:30 0 0 78,14 0 20,54
44 18.8.2017 21:00 0 0 75,41 0 21,29
© 2011 Ministrstvo za kmetijstvo, gozdarstvo in prehrano. Vse pravice pridržane.